createdAt,value
2022-09-14T00:00:26.766Z,995.10
2022-09-14T00:01:27.395Z,995.01
2022-09-14T00:02:26.919Z,995.08
2022-09-14T00:03:26.779Z,995.07
2022-09-14T00:04:26.730Z,995.09
2022-09-14T00:05:26.705Z,995.05
2022-09-14T00:06:26.683Z,995.03
2022-09-14T00:07:26.678Z,995.01
2022-09-14T00:08:26.662Z,995.03
2022-09-14T00:09:26.669Z,994.98
2022-09-14T00:10:26.642Z,994.95
2022-09-14T00:11:26.638Z,994.95
2022-09-14T00:12:26.635Z,995.00
2022-09-14T00:13:26.615Z,994.97
2022-09-14T00:14:26.632Z,995.02
2022-09-14T00:15:26.597Z,995.03
2022-09-14T00:16:26.640Z,995.04
2022-09-14T00:17:26.576Z,995.04
2022-09-14T00:18:26.556Z,995.01
2022-09-14T00:19:26.541Z,995.02
2022-09-14T00:20:26.548Z,995.02
2022-09-14T00:21:26.543Z,995.01
2022-09-14T00:22:26.511Z,994.98
2022-09-14T00:23:26.507Z,994.95
2022-09-14T00:24:26.490Z,995.00
2022-09-14T00:25:26.474Z,994.90
2022-09-14T00:26:26.473Z,994.92
2022-09-14T00:27:26.473Z,994.93
2022-09-14T00:28:26.458Z,994.89
2022-09-14T00:29:26.456Z,994.87
2022-09-14T00:30:26.422Z,994.86
2022-09-14T00:31:26.435Z,994.93
2022-09-14T00:32:26.410Z,994.89
2022-09-14T00:33:26.423Z,994.88
2022-09-14T00:34:26.393Z,994.86
2022-09-14T00:35:26.382Z,994.91
2022-09-14T00:36:27.224Z,994.88
2022-09-14T00:37:26.364Z,994.84
2022-09-14T00:38:26.365Z,994.85
2022-09-14T00:39:26.351Z,994.86
2022-09-14T00:40:26.378Z,994.84
2022-09-14T00:41:26.315Z,994.86
2022-09-14T00:42:26.293Z,994.86
2022-09-14T00:43:26.300Z,994.87
2022-09-14T00:44:26.289Z,994.86
2022-09-14T00:45:26.298Z,994.79
2022-09-14T00:46:26.271Z,994.82
2022-09-14T00:47:26.235Z,994.82
2022-09-14T00:48:26.236Z,994.76
2022-09-14T00:49:26.240Z,994.79
2022-09-14T00:50:26.201Z,994.75
2022-09-14T00:51:26.201Z,994.79
2022-09-14T00:52:26.300Z,994.78
2022-09-14T00:53:26.171Z,994.75
2022-09-14T00:54:26.186Z,994.77
2022-09-14T00:55:26.162Z,994.73
2022-09-14T00:56:26.139Z,994.69
2022-09-14T00:57:26.144Z,994.67
2022-09-14T00:58:26.145Z,994.71
2022-09-14T00:59:26.102Z,994.61
2022-09-14T01:00:26.092Z,994.63
2022-09-14T01:01:26.281Z,994.69
2022-09-14T01:02:26.172Z,994.65
2022-09-14T01:03:26.066Z,994.70
2022-09-14T01:04:26.070Z,994.71
2022-09-14T01:05:26.053Z,994.68
2022-09-14T01:06:26.031Z,994.65
2022-09-14T01:07:26.037Z,994.61
2022-09-14T01:08:26.121Z,994.63
2022-09-14T01:09:25.996Z,994.65
2022-09-14T01:10:25.983Z,994.61
2022-09-14T01:11:25.975Z,994.59
2022-09-14T01:12:25.969Z,994.55
2022-09-14T01:13:26.001Z,994.57
2022-09-14T01:14:26.017Z,994.55
2022-09-14T01:15:25.934Z,994.58
2022-09-14T01:16:26.001Z,994.59
2022-09-14T01:17:25.914Z,994.64
2022-09-14T01:18:25.893Z,994.63
2022-09-14T01:19:25.889Z,994.65
2022-09-14T01:20:25.878Z,994.64
2022-09-14T01:21:25.882Z,994.64
2022-09-14T01:22:25.863Z,994.66
2022-09-14T01:23:25.871Z,994.66
2022-09-14T01:24:25.929Z,994.66
2022-09-14T01:25:25.820Z,994.65
2022-09-14T01:26:25.816Z,994.68
2022-09-14T01:27:25.809Z,994.71
2022-09-14T01:28:25.831Z,994.71
2022-09-14T01:29:25.781Z,994.72
2022-09-14T01:30:25.776Z,994.70
2022-09-14T01:31:25.803Z,994.72
2022-09-14T01:32:25.740Z,994.72
2022-09-14T01:33:25.730Z,994.70
2022-09-14T01:34:25.738Z,994.69
2022-09-14T01:35:25.727Z,994.69
2022-09-14T01:36:25.709Z,994.71
2022-09-14T01:37:25.689Z,994.67
2022-09-14T01:38:25.696Z,994.68
2022-09-14T01:39:25.711Z,994.66
2022-09-14T01:40:25.744Z,994.73
2022-09-14T01:41:25.663Z,994.68
2022-09-14T01:42:25.644Z,994.62
2022-09-14T01:43:25.634Z,994.68
2022-09-14T01:44:25.615Z,994.65
2022-09-14T01:45:25.628Z,994.65
2022-09-14T01:46:25.628Z,994.66
2022-09-14T01:47:25.575Z,994.61
2022-09-14T01:48:25.566Z,994.63
2022-09-14T01:49:25.576Z,994.64
2022-09-14T01:50:25.549Z,994.64
2022-09-14T01:51:25.564Z,994.60
2022-09-14T01:52:25.520Z,994.60
2022-09-14T01:53:25.515Z,994.57
2022-09-14T01:54:25.500Z,994.60
2022-09-14T01:55:25.495Z,994.55
2022-09-14T01:56:25.522Z,994.60
2022-09-14T01:57:25.476Z,994.62
2022-09-14T01:58:25.461Z,994.60
2022-09-14T01:59:25.455Z,994.63
2022-09-14T02:00:25.436Z,994.64
2022-09-14T02:01:25.465Z,994.60
2022-09-14T02:02:25.496Z,994.62
2022-09-14T02:03:25.443Z,994.63
2022-09-14T02:04:25.392Z,994.68
2022-09-14T02:05:25.403Z,994.66
2022-09-14T02:06:25.378Z,994.61
2022-09-14T02:07:25.372Z,994.59
2022-09-14T02:08:25.349Z,994.54
2022-09-14T02:09:25.341Z,994.53
2022-09-14T02:10:25.327Z,994.52
2022-09-14T02:11:25.339Z,994.46
2022-09-14T02:12:25.411Z,994.48
2022-09-14T02:13:25.305Z,994.45
2022-09-14T02:14:25.284Z,994.50
2022-09-14T02:15:25.271Z,994.46
2022-09-14T02:16:25.326Z,994.44
2022-09-14T02:17:25.248Z,994.45
2022-09-14T02:18:25.248Z,994.43
2022-09-14T02:19:25.257Z,994.45
2022-09-14T02:20:25.224Z,994.43
2022-09-14T02:21:25.205Z,994.42
2022-09-14T02:22:25.203Z,994.41
2022-09-14T02:23:25.181Z,994.41
2022-09-14T02:24:25.187Z,994.42
2022-09-14T02:25:25.172Z,994.40
2022-09-14T02:26:25.176Z,994.41
2022-09-14T02:27:25.136Z,994.40
2022-09-14T02:28:25.236Z,994.38
2022-09-14T02:29:25.138Z,994.33
2022-09-14T02:30:25.104Z,994.36
2022-09-14T02:31:25.203Z,994.39
2022-09-14T02:32:25.085Z,994.32
2022-09-14T02:33:25.075Z,994.31
2022-09-14T02:34:25.204Z,994.27
2022-09-14T02:35:25.056Z,994.33
2022-09-14T02:36:25.051Z,994.32
2022-09-14T02:37:25.056Z,994.29
2022-09-14T02:38:25.030Z,994.30
2022-09-14T02:39:25.020Z,994.29
2022-09-14T02:40:25.079Z,994.28
2022-09-14T02:41:24.994Z,994.29
2022-09-14T02:42:24.994Z,994.29
2022-09-14T02:43:25.017Z,994.28
2022-09-14T02:44:25.064Z,994.30
2022-09-14T02:45:24.961Z,994.32
2022-09-14T02:46:25.013Z,994.35
2022-09-14T02:47:24.922Z,994.33
2022-09-14T02:48:24.934Z,994.28
2022-09-14T02:49:24.979Z,994.25
2022-09-14T02:50:24.909Z,994.26
2022-09-14T02:51:24.879Z,994.27
2022-09-14T02:52:24.874Z,994.22
2022-09-14T02:53:24.861Z,994.18
2022-09-14T02:54:24.856Z,994.24
2022-09-14T02:55:24.870Z,994.25
2022-09-14T02:56:24.848Z,994.24
2022-09-14T02:57:24.821Z,994.23
2022-09-14T02:58:24.805Z,994.20
2022-09-14T02:59:24.804Z,994.25
2022-09-14T03:00:24.790Z,994.15
2022-09-14T03:01:24.861Z,994.17
2022-09-14T03:02:24.862Z,994.18
2022-09-14T03:03:24.765Z,994.17
2022-09-14T03:04:24.764Z,994.22
2022-09-14T03:05:24.737Z,994.22
2022-09-14T03:06:24.715Z,994.21
2022-09-14T03:07:24.702Z,994.22
2022-09-14T03:08:24.690Z,994.25
2022-09-14T03:09:24.698Z,994.25
2022-09-14T03:10:24.721Z,994.29
2022-09-14T03:11:24.682Z,994.25
2022-09-14T03:12:24.643Z,994.24
2022-09-14T03:13:24.643Z,994.23
2022-09-14T03:14:25.097Z,994.24
2022-09-14T03:15:24.613Z,994.23
2022-09-14T03:16:24.697Z,994.19
2022-09-14T03:17:24.612Z,994.17
2022-09-14T03:18:24.581Z,994.21
2022-09-14T03:19:24.626Z,994.16
2022-09-14T03:20:24.566Z,994.18
2022-09-14T03:21:24.544Z,994.17
2022-09-14T03:22:24.554Z,994.19
2022-09-14T03:23:24.571Z,994.14
2022-09-14T03:24:24.519Z,994.16
2022-09-14T03:25:24.516Z,994.14
2022-09-14T03:26:24.503Z,994.19
2022-09-14T03:27:24.485Z,994.17
2022-09-14T03:28:24.487Z,994.15
2022-09-14T03:29:24.460Z,994.09
2022-09-14T03:30:24.489Z,994.18
2022-09-14T03:31:24.537Z,994.16
2022-09-14T03:32:24.458Z,994.10
2022-09-14T03:33:24.425Z,994.06
2022-09-14T03:34:24.429Z,994.07
2022-09-14T03:35:24.395Z,994.07
2022-09-14T03:36:24.381Z,994.03
2022-09-14T03:37:24.371Z,993.99
2022-09-14T03:38:24.386Z,993.94
2022-09-14T03:39:24.373Z,993.94
2022-09-14T03:40:24.466Z,993.91
2022-09-14T03:41:24.373Z,993.91
2022-09-14T03:42:24.320Z,993.93
2022-09-14T03:43:24.331Z,993.86
2022-09-14T03:44:24.392Z,993.84
2022-09-14T03:45:24.295Z,993.88
2022-09-14T03:46:24.398Z,993.86
2022-09-14T03:47:24.285Z,993.88
2022-09-14T03:48:24.282Z,993.88
2022-09-14T03:49:24.246Z,993.91
2022-09-14T03:50:24.232Z,993.92
2022-09-14T03:51:24.252Z,993.90
2022-09-14T03:52:24.241Z,993.92
2022-09-14T03:53:24.262Z,993.89
2022-09-14T03:54:24.196Z,993.92
2022-09-14T03:55:24.186Z,993.89
2022-09-14T03:56:24.185Z,993.87
2022-09-14T03:57:24.162Z,993.88
2022-09-14T03:58:24.158Z,993.87
2022-09-14T03:59:24.141Z,993.82
2022-09-14T04:00:24.132Z,993.80
2022-09-14T04:01:24.139Z,993.80
2022-09-14T04:02:24.194Z,993.76
2022-09-14T04:03:24.092Z,993.80
2022-09-14T04:04:24.210Z,993.76
2022-09-14T04:05:24.119Z,993.76
2022-09-14T04:06:24.075Z,993.72
2022-09-14T04:07:24.053Z,993.68
2022-09-14T04:08:24.037Z,993.68
2022-09-14T04:09:24.042Z,993.71
2022-09-14T04:10:24.049Z,993.68
2022-09-14T04:11:24.005Z,993.74
2022-09-14T04:12:23.986Z,993.77
2022-09-14T04:13:23.993Z,993.77
2022-09-14T04:14:23.982Z,993.78
2022-09-14T04:15:23.988Z,993.80
2022-09-14T04:16:23.995Z,993.77
2022-09-14T04:17:23.953Z,993.81
2022-09-14T04:18:23.920Z,993.83
2022-09-14T04:19:23.913Z,993.73
2022-09-14T04:20:24.092Z,993.75
2022-09-14T04:21:23.923Z,993.72
2022-09-14T04:22:23.886Z,993.76
2022-09-14T04:23:23.874Z,993.68
2022-09-14T04:24:29.352Z,993.66
2022-09-14T04:25:23.870Z,993.68
2022-09-14T04:26:23.857Z,993.67
2022-09-14T04:27:23.872Z,993.67
2022-09-14T04:28:23.812Z,993.69
2022-09-14T04:29:23.837Z,993.66
2022-09-14T04:30:23.841Z,993.63
2022-09-14T04:31:23.850Z,993.65
2022-09-14T04:32:23.774Z,993.61
2022-09-14T04:33:23.774Z,993.64
2022-09-14T04:34:23.758Z,993.66
2022-09-14T04:35:23.748Z,993.69
2022-09-14T04:36:23.837Z,993.67
2022-09-14T04:37:23.739Z,993.70
2022-09-14T04:38:23.711Z,993.66
2022-09-14T04:39:23.691Z,993.68
2022-09-14T04:40:23.723Z,993.70
2022-09-14T04:41:23.671Z,993.69
2022-09-14T04:42:23.697Z,993.71
2022-09-14T04:43:23.654Z,993.77
2022-09-14T04:44:23.653Z,993.76
2022-09-14T04:45:23.635Z,993.70
2022-09-14T04:46:23.687Z,993.67
2022-09-14T04:47:23.645Z,993.68
2022-09-14T04:48:23.605Z,993.67
2022-09-14T04:49:23.611Z,993.70
2022-09-14T04:50:23.589Z,993.68
2022-09-14T04:51:23.567Z,993.72
2022-09-14T04:52:23.569Z,993.65
2022-09-14T04:53:23.547Z,993.69
2022-09-14T04:54:23.573Z,993.69
2022-09-14T04:55:23.526Z,993.66
2022-09-14T04:56:23.505Z,993.67
2022-09-14T04:57:23.496Z,993.68
2022-09-14T04:58:23.488Z,993.71
2022-09-14T04:59:23.511Z,993.68
2022-09-14T05:00:23.465Z,993.71
2022-09-14T05:01:23.570Z,993.66
2022-09-14T05:02:23.666Z,993.65
2022-09-14T05:03:23.428Z,993.71
2022-09-14T05:04:23.427Z,993.71
2022-09-14T05:05:23.426Z,993.71
2022-09-14T05:06:23.402Z,993.70
2022-09-14T05:07:23.393Z,993.61
2022-09-14T05:08:23.399Z,993.64
2022-09-14T05:09:23.385Z,993.68
2022-09-14T05:10:23.362Z,993.60
2022-09-14T05:11:23.374Z,993.56
2022-09-14T05:12:23.333Z,993.63
2022-09-14T05:13:23.337Z,993.64
2022-09-14T05:14:23.313Z,993.65
2022-09-14T05:15:23.299Z,993.69
2022-09-14T05:16:23.419Z,993.67
2022-09-14T05:17:23.277Z,993.60
2022-09-14T05:18:23.269Z,993.63
2022-09-14T05:19:23.273Z,993.65
2022-09-14T05:20:23.256Z,993.64
2022-09-14T05:21:23.239Z,993.59
2022-09-14T05:22:23.245Z,993.58
2022-09-14T05:23:23.210Z,993.59
2022-09-14T05:24:23.225Z,993.57
2022-09-14T05:25:23.203Z,993.58
2022-09-14T05:26:23.178Z,993.57
2022-09-14T05:27:23.218Z,993.54
2022-09-14T05:28:23.184Z,993.60
2022-09-14T05:29:23.144Z,993.57
2022-09-14T05:30:23.151Z,993.58
2022-09-14T05:31:23.168Z,993.62
2022-09-14T05:32:23.131Z,993.61
2022-09-14T05:33:23.105Z,993.56
2022-09-14T05:34:23.120Z,993.52
2022-09-14T05:35:23.090Z,993.52
2022-09-14T05:36:23.075Z,993.50
2022-09-14T05:37:23.054Z,993.52
2022-09-14T05:38:23.046Z,993.48
2022-09-14T05:39:23.492Z,993.48
2022-09-14T05:40:23.186Z,993.47
2022-09-14T05:41:23.018Z,993.50
2022-09-14T05:42:23.020Z,993.53
2022-09-14T05:43:23.025Z,993.48
2022-09-14T05:44:22.994Z,993.54
2022-09-14T05:45:22.993Z,993.45
2022-09-14T05:46:23.045Z,993.48
2022-09-14T05:47:22.957Z,993.42
2022-09-14T05:48:22.955Z,993.44
2022-09-14T05:49:22.938Z,993.48
2022-09-14T05:50:22.929Z,993.45
2022-09-14T05:51:22.902Z,993.51
2022-09-14T05:52:22.892Z,993.43
2022-09-14T05:53:22.889Z,993.47
2022-09-14T05:54:22.895Z,993.39
2022-09-14T05:55:22.905Z,993.34
2022-09-14T05:56:22.964Z,993.42
2022-09-14T05:57:22.849Z,993.34
2022-09-14T05:58:22.829Z,993.39
2022-09-14T05:59:22.821Z,993.38
2022-09-14T06:00:22.805Z,993.42
2022-09-14T06:01:22.903Z,993.45
2022-09-14T06:02:22.842Z,993.37
2022-09-14T06:03:22.785Z,993.35
2022-09-14T06:04:22.825Z,993.42
2022-09-14T06:05:22.827Z,993.38
2022-09-14T06:06:22.768Z,993.37
2022-09-14T06:07:22.742Z,993.35
2022-09-14T06:08:22.744Z,993.35
2022-09-14T06:09:22.705Z,993.38
2022-09-14T06:10:22.697Z,993.39
2022-09-14T06:11:22.720Z,993.41
2022-09-14T06:12:22.818Z,993.35
2022-09-14T06:13:22.683Z,993.41
2022-09-14T06:14:22.672Z,993.35
2022-09-14T06:15:22.640Z,993.31
2022-09-14T06:16:22.648Z,993.33
2022-09-14T06:17:22.644Z,993.30
2022-09-14T06:18:22.621Z,993.30
2022-09-14T06:19:22.607Z,993.28
2022-09-14T06:20:22.646Z,993.31
2022-09-14T06:21:22.592Z,993.30
2022-09-14T06:22:23.994Z,993.24
2022-09-14T06:23:22.567Z,993.26
2022-09-14T06:24:22.557Z,993.21
2022-09-14T06:25:22.553Z,993.24
2022-09-14T06:26:22.535Z,993.20
2022-09-14T06:27:22.506Z,993.22
2022-09-14T06:28:22.612Z,993.27
2022-09-14T06:29:22.502Z,993.20
2022-09-14T06:30:22.494Z,993.23
2022-09-14T06:31:22.588Z,993.26
2022-09-14T06:32:22.468Z,993.23
2022-09-14T06:33:22.450Z,993.24
2022-09-14T06:34:22.454Z,993.28
2022-09-14T06:35:22.425Z,993.27
2022-09-14T06:36:22.432Z,993.28
2022-09-14T06:37:22.414Z,993.34
2022-09-14T06:38:22.491Z,993.32
2022-09-14T06:39:22.391Z,993.35
2022-09-14T06:40:22.470Z,993.39
2022-09-14T06:41:22.383Z,993.38
2022-09-14T06:42:22.366Z,993.34
2022-09-14T06:43:22.335Z,993.32
2022-09-14T06:44:22.407Z,993.35
2022-09-14T06:45:22.322Z,993.32
2022-09-14T06:46:22.334Z,993.36
2022-09-14T06:47:22.325Z,993.39
2022-09-14T06:48:22.282Z,993.36
2022-09-14T06:49:22.269Z,993.42
2022-09-14T06:50:22.259Z,993.34
2022-09-14T06:51:22.253Z,993.39
2022-09-14T06:52:22.276Z,993.39
2022-09-14T06:53:22.222Z,993.46
2022-09-14T06:54:22.213Z,993.47
2022-09-14T06:55:22.205Z,993.45
2022-09-14T06:56:22.216Z,993.47
2022-09-14T06:57:22.181Z,993.45
2022-09-14T06:58:22.194Z,993.45
2022-09-14T06:59:22.157Z,993.46
2022-09-14T07:00:22.253Z,993.46
2022-09-14T07:01:22.156Z,993.45
2022-09-14T07:02:22.207Z,993.42
2022-09-14T07:03:22.141Z,993.47
2022-09-14T07:04:22.136Z,993.48
2022-09-14T07:05:22.090Z,993.44
2022-09-14T07:06:22.095Z,993.54
2022-09-14T07:07:22.103Z,993.49
2022-09-14T07:08:22.061Z,993.48
2022-09-14T07:09:22.056Z,993.50
2022-09-14T07:10:22.085Z,993.49
2022-09-14T07:11:22.038Z,993.47
2022-09-14T07:12:22.034Z,993.46
2022-09-14T07:13:22.022Z,993.49
2022-09-14T07:14:22.000Z,993.45
2022-09-14T07:15:22.002Z,993.45
2022-09-14T07:16:22.001Z,993.39
2022-09-14T07:17:21.973Z,993.41
2022-09-14T07:18:22.026Z,993.45
2022-09-14T07:19:21.965Z,993.46
2022-09-14T07:20:21.936Z,993.43
2022-09-14T07:21:21.968Z,993.46
2022-09-14T07:22:21.906Z,993.43
2022-09-14T07:23:21.907Z,993.44
2022-09-14T07:24:21.907Z,993.46
2022-09-14T07:25:21.903Z,993.44
2022-09-14T07:26:21.875Z,993.43
2022-09-14T07:27:21.870Z,993.44
2022-09-14T07:28:21.875Z,993.42
2022-09-14T07:29:21.840Z,993.40
2022-09-14T07:30:21.876Z,993.45
2022-09-14T07:31:21.882Z,993.45
2022-09-14T07:32:21.832Z,993.44
2022-09-14T07:33:21.806Z,993.42
2022-09-14T07:34:21.800Z,993.45
2022-09-14T07:35:21.765Z,993.45
2022-09-14T07:36:21.784Z,993.45
2022-09-14T07:37:21.747Z,993.45
2022-09-14T07:38:41.490Z,993.51
2022-09-14T07:39:21.750Z,993.56
2022-09-14T07:40:21.823Z,993.47
2022-09-14T07:41:21.699Z,993.50
2022-09-14T07:42:21.718Z,993.48
2022-09-14T07:43:21.684Z,993.50
2022-09-14T07:44:21.721Z,993.48
2022-09-14T07:45:21.686Z,993.49
2022-09-14T07:46:21.812Z,993.45
2022-09-14T07:47:21.642Z,993.45
2022-09-14T07:48:21.647Z,993.46
2022-09-14T07:49:21.626Z,993.43
2022-09-14T07:50:21.663Z,993.52
2022-09-14T07:51:21.585Z,993.52
2022-09-14T07:52:21.577Z,993.49
2022-09-14T07:53:21.591Z,993.53
2022-09-14T07:54:21.602Z,993.47
2022-09-14T07:55:21.552Z,993.52
2022-09-14T07:56:21.535Z,993.47
2022-09-14T07:57:30.210Z,993.50
2022-09-14T07:58:21.513Z,993.47
2022-09-14T07:59:35.742Z,993.49
2022-09-14T08:00:22.520Z,993.49
2022-09-14T08:01:21.567Z,993.50
2022-09-14T08:02:21.554Z,993.51
2022-09-14T08:03:21.455Z,993.56
2022-09-14T08:04:21.615Z,993.59
2022-09-14T08:05:21.460Z,993.59
2022-09-14T08:06:21.430Z,993.60
2022-09-14T08:07:21.440Z,993.56
2022-09-14T08:08:21.432Z,993.59
2022-09-14T08:09:21.393Z,993.52
2022-09-14T08:10:21.385Z,993.60
2022-09-14T08:11:21.394Z,993.59
2022-09-14T08:12:21.362Z,993.52
2022-09-14T08:13:21.376Z,993.57
2022-09-14T08:14:21.336Z,993.58
2022-09-14T08:15:24.151Z,993.60
2022-09-14T08:16:21.374Z,993.58
2022-09-14T08:17:21.305Z,993.56
2022-09-14T08:18:21.309Z,993.48
2022-09-14T08:19:21.292Z,993.51
2022-09-14T08:20:21.323Z,993.56
2022-09-14T08:21:21.266Z,993.47
2022-09-14T08:22:21.251Z,993.50
2022-09-14T08:23:21.242Z,993.44
2022-09-14T08:24:21.255Z,993.44
2022-09-14T08:25:21.214Z,993.51
2022-09-14T08:26:21.224Z,993.44
2022-09-14T08:27:21.212Z,993.38
2022-09-14T08:28:21.192Z,993.43
2022-09-14T08:29:21.196Z,993.43
2022-09-14T08:30:21.220Z,993.40
2022-09-14T08:31:21.228Z,993.38
2022-09-14T08:32:21.140Z,993.43
2022-09-14T08:33:21.153Z,993.41
2022-09-14T08:34:21.136Z,993.38
2022-09-14T08:35:35.494Z,993.38
2022-09-14T08:36:21.244Z,993.41
2022-09-14T08:37:21.085Z,993.36
2022-09-14T08:38:21.076Z,993.37
2022-09-14T08:39:21.202Z,993.38
2022-09-14T08:40:21.099Z,993.42
2022-09-14T08:41:21.048Z,993.38
2022-09-14T08:42:21.042Z,993.32
2022-09-14T08:43:21.019Z,993.35
2022-09-14T08:44:21.020Z,993.33
2022-09-14T08:45:21.017Z,993.32
2022-09-14T08:46:20.997Z,993.35
2022-09-14T08:47:20.988Z,993.37
2022-09-14T08:48:20.974Z,993.39
2022-09-14T08:49:20.981Z,993.35
2022-09-14T08:50:21.011Z,993.37
2022-09-14T08:51:20.932Z,993.36
2022-09-14T08:52:22.938Z,993.40
2022-09-14T08:53:20.928Z,993.34
2022-09-14T08:54:20.918Z,993.35
2022-09-14T08:55:20.936Z,993.33
2022-09-14T08:56:20.876Z,993.33
2022-09-14T08:57:20.894Z,993.32
2022-09-14T08:58:20.860Z,993.30
2022-09-14T08:59:20.847Z,993.32
2022-09-14T09:00:20.835Z,993.25
2022-09-14T09:01:20.869Z,993.27
2022-09-14T09:02:20.831Z,993.27
2022-09-14T09:03:20.818Z,993.30
2022-09-14T09:04:20.875Z,993.24
2022-09-14T09:05:20.786Z,993.27
2022-09-14T09:06:20.790Z,993.16
2022-09-14T09:07:20.765Z,993.20
2022-09-14T09:08:20.764Z,993.19
2022-09-14T09:09:20.757Z,993.16
2022-09-14T09:10:20.729Z,993.17
2022-09-14T09:11:20.738Z,993.23
2022-09-14T09:12:20.707Z,993.24
2022-09-14T09:13:20.704Z,993.20
2022-09-14T09:14:20.688Z,993.22
2022-09-14T09:15:20.678Z,993.19
2022-09-14T09:16:20.739Z,993.20
2022-09-14T09:17:20.669Z,993.19
2022-09-14T09:18:20.636Z,993.13
2022-09-14T09:19:20.645Z,993.13
2022-09-14T09:20:20.632Z,993.13
2022-09-14T09:21:20.632Z,993.13
2022-09-14T09:22:20.610Z,993.15
2022-09-14T09:23:20.651Z,993.13
2022-09-14T09:24:20.621Z,993.14
2022-09-14T09:25:20.560Z,993.11
2022-09-14T09:26:20.583Z,993.14
2022-09-14T09:27:20.535Z,993.12
2022-09-14T09:28:20.528Z,993.12
2022-09-14T09:29:20.548Z,993.15
2022-09-14T09:30:20.504Z,993.11
2022-09-14T09:31:20.549Z,993.06
2022-09-14T09:32:20.502Z,993.11
2022-09-14T09:33:20.512Z,993.08
2022-09-14T09:34:20.468Z,993.14
2022-09-14T09:35:20.477Z,993.06
2022-09-14T09:36:20.444Z,993.06
2022-09-14T09:37:20.432Z,993.03
2022-09-14T09:38:20.428Z,993.03
2022-09-14T09:39:20.407Z,993.04
2022-09-14T09:40:20.454Z,993.04
2022-09-14T09:41:20.386Z,993.03
2022-09-14T09:42:20.383Z,993.15
2022-09-14T09:43:33.575Z,993.10
2022-09-14T09:44:20.352Z,993.14
2022-09-14T09:45:20.351Z,993.07
2022-09-14T09:46:20.405Z,993.04
2022-09-14T09:47:20.327Z,993.11
2022-09-14T09:48:20.306Z,992.99
2022-09-14T09:49:20.313Z,992.99
2022-09-14T09:50:20.288Z,993.05
2022-09-14T09:51:23.941Z,993.01
2022-09-14T09:52:20.261Z,992.97
2022-09-14T09:53:20.281Z,992.95
2022-09-14T09:54:20.268Z,992.93
2022-09-14T09:55:20.241Z,992.93
2022-09-14T09:56:20.241Z,992.88
2022-09-14T09:57:20.209Z,992.87
2022-09-14T09:58:20.197Z,992.84
2022-09-14T09:59:20.196Z,992.84
2022-09-14T10:00:20.191Z,992.77
2022-09-14T10:01:20.219Z,992.74
2022-09-14T10:02:20.233Z,992.81
2022-09-14T10:03:20.232Z,992.80
2022-09-14T10:04:20.156Z,992.80
2022-09-14T10:05:20.121Z,992.74
2022-09-14T10:06:20.117Z,992.76
2022-09-14T10:07:20.134Z,992.72
2022-09-14T10:08:20.101Z,992.73
2022-09-14T10:09:20.086Z,992.71
2022-09-14T10:10:20.065Z,992.71
2022-09-14T10:11:20.058Z,992.74
2022-09-14T10:12:20.067Z,992.71
2022-09-14T10:13:20.140Z,992.71
2022-09-14T10:14:20.028Z,992.75
2022-09-14T10:15:20.027Z,992.80
2022-09-14T10:16:20.086Z,992.80
2022-09-14T10:17:20.003Z,992.81
2022-09-14T10:18:19.978Z,992.80
2022-09-14T10:19:20.019Z,992.80
2022-09-14T10:20:19.965Z,992.83
2022-09-14T10:21:19.972Z,992.82
2022-09-14T10:22:23.107Z,992.81
2022-09-14T10:23:20.041Z,992.80
2022-09-14T10:24:19.915Z,992.80
2022-09-14T10:25:19.901Z,992.81
2022-09-14T10:26:19.904Z,992.77
2022-09-14T10:27:19.897Z,992.83
2022-09-14T10:28:19.897Z,992.76
2022-09-14T10:29:19.870Z,992.78
2022-09-14T10:30:19.877Z,992.80
2022-09-14T10:31:20.011Z,992.75
2022-09-14T10:32:19.844Z,992.79
2022-09-14T10:33:19.860Z,992.73
2022-09-14T10:34:19.817Z,992.74
2022-09-14T10:35:19.831Z,992.82
2022-09-14T10:36:19.791Z,992.75
2022-09-14T10:37:19.781Z,992.83
2022-09-14T10:38:19.770Z,992.83
2022-09-14T10:39:24.107Z,992.84
2022-09-14T10:40:19.832Z,992.83
2022-09-14T10:41:19.730Z,992.87
2022-09-14T10:42:19.759Z,992.86
2022-09-14T10:43:19.720Z,992.84
2022-09-14T10:44:19.805Z,992.88
2022-09-14T10:45:19.684Z,992.84
2022-09-14T10:46:19.713Z,992.84
2022-09-14T10:47:19.669Z,992.92
2022-09-14T10:48:19.677Z,992.82
2022-09-14T10:49:19.672Z,992.82
2022-09-14T10:50:19.628Z,992.77
2022-09-14T10:51:19.655Z,992.78
2022-09-14T10:52:19.603Z,992.79
2022-09-14T10:53:19.603Z,992.79
2022-09-14T10:54:19.634Z,992.78
2022-09-14T10:55:19.589Z,992.84
2022-09-14T10:56:19.585Z,992.80
2022-09-14T10:57:19.599Z,992.75
2022-09-14T10:58:23.801Z,992.83
2022-09-14T10:59:19.539Z,992.80
2022-09-14T11:00:19.552Z,992.77
2022-09-14T11:01:19.580Z,992.81
2022-09-14T11:02:19.582Z,992.77
2022-09-14T11:03:19.496Z,992.77
2022-09-14T11:04:19.499Z,992.81
2022-09-14T11:05:19.462Z,992.83
2022-09-14T11:06:19.453Z,992.83
2022-09-14T11:07:19.449Z,992.84
2022-09-14T11:08:19.459Z,992.80
2022-09-14T11:09:19.416Z,992.84
2022-09-14T11:10:19.405Z,992.84
2022-09-14T11:11:19.395Z,992.79
2022-09-14T11:12:19.398Z,992.77
2022-09-14T11:13:19.405Z,992.76
2022-09-14T11:14:19.370Z,992.75
2022-09-14T11:15:19.384Z,992.69
2022-09-14T11:16:19.557Z,992.69
2022-09-14T11:17:19.354Z,992.70
2022-09-14T11:18:19.329Z,992.75
2022-09-14T11:19:19.332Z,992.75
2022-09-14T11:20:19.331Z,992.74
2022-09-14T11:21:19.304Z,992.74
2022-09-14T11:22:19.283Z,992.72
2022-09-14T11:23:19.283Z,992.72
2022-09-14T11:24:19.259Z,992.76
2022-09-14T11:25:19.262Z,992.72
2022-09-14T11:26:19.270Z,992.76
2022-09-14T11:27:19.221Z,992.73
2022-09-14T11:28:19.224Z,992.71
2022-09-14T11:29:19.210Z,992.69
2022-09-14T11:30:19.199Z,992.70
2022-09-14T11:31:19.292Z,992.72
2022-09-14T11:32:21.887Z,992.70
2022-09-14T11:33:19.163Z,992.70
2022-09-14T11:34:19.143Z,992.66
2022-09-14T11:35:19.184Z,992.72
2022-09-14T11:36:19.136Z,992.77
2022-09-14T11:37:19.145Z,992.81
2022-09-14T11:38:19.107Z,992.84
2022-09-14T11:39:19.089Z,992.82
2022-09-14T11:40:19.113Z,992.81
2022-09-14T11:41:19.090Z,992.79
2022-09-14T11:42:19.067Z,992.73
2022-09-14T11:43:19.059Z,992.69
2022-09-14T11:44:19.037Z,992.69
2022-09-14T11:45:19.061Z,992.67
2022-09-14T11:46:19.057Z,992.66
2022-09-14T11:47:19.018Z,992.69
2022-09-14T11:48:42.344Z,992.62
2022-09-14T11:49:19.998Z,992.63
2022-09-14T11:50:18.972Z,992.63
2022-09-14T11:51:18.974Z,992.68
2022-09-14T11:52:18.946Z,992.64
2022-09-14T11:53:18.950Z,992.64
2022-09-14T11:54:18.947Z,992.61
2022-09-14T11:55:18.914Z,992.65
2022-09-14T11:56:18.908Z,992.59
2022-09-14T11:57:18.936Z,992.61
2022-09-14T11:58:18.880Z,992.58
2022-09-14T11:59:18.884Z,992.62
2022-09-14T12:00:18.882Z,992.63
2022-09-14T12:01:18.848Z,992.69
2022-09-14T12:02:18.899Z,992.64
2022-09-14T12:03:18.956Z,992.58
2022-09-14T12:04:18.956Z,992.55
2022-09-14T12:05:18.829Z,992.56
2022-09-14T12:06:18.820Z,992.47
2022-09-14T12:07:18.803Z,992.55
2022-09-14T12:08:18.773Z,992.55
2022-09-14T12:09:18.781Z,992.59
2022-09-14T12:10:18.756Z,992.57
2022-09-14T12:11:18.750Z,992.64
2022-09-14T12:12:18.759Z,992.74
2022-09-14T12:13:18.723Z,992.63
2022-09-14T12:14:18.718Z,992.68
2022-09-14T12:15:18.695Z,992.64
2022-09-14T12:16:18.754Z,992.60
2022-09-14T12:18:18.663Z,992.53
2022-09-14T12:19:18.660Z,992.50
2022-09-14T12:20:20.406Z,992.47
2022-09-14T12:21:18.662Z,992.48
2022-09-14T12:22:18.636Z,992.52
2022-09-14T12:23:18.634Z,992.47
2022-09-14T12:24:18.595Z,992.51
2022-09-14T12:25:18.589Z,992.53
2022-09-14T12:26:18.596Z,992.50
2022-09-14T12:27:18.582Z,992.50
2022-09-14T12:28:18.568Z,992.48
2022-09-14T12:29:18.578Z,992.46